Time;durP1;ratioP1;P1;durP2;ratioP2;P2;SDS_P1;SDS_P2;PMS_P1;PMS_P2;Temp;Humidity;BMP_temperature;BMP_pressure;BME280_temperature;BME280_humidity;BME280_pressure;Samples;Min_cycle;Max_cycle;Signal;HPM_P1;HPM_P2
2021/05/02 00:01:12;;;;;;;4.45;3.92;;;9.10;80.10;;;;;;5036033;28;20037;-65
2021/05/02 00:03:40;;;;;;;4.95;4.13;;;9.00;80.10;;;;;;5039439;28;20068;-65
2021/05/02 00:06:11;;;;;;;5.10;3.90;;;9.00;80.20;;;;;;5037796;28;20425;-64
2021/05/02 00:08:43;;;;;;;5.13;4.28;;;9.00;80.30;;;;;;5035616;28;20491;-64
2021/05/02 00:11:14;;;;;;;4.47;4.07;;;9.00;80.40;;;;;;5035603;28;20041;-65
2021/05/02 00:13:42;;;;;;;4.88;4.38;;;9.10;80.40;;;;;;5036797;28;20056;-65
2021/05/02 00:16:15;;;;;;;5.30;4.20;;;9.00;80.30;;;;;;5038409;28;20115;-65
2021/05/02 00:18:45;;;;;;;4.68;4.18;;;9.00;80.40;;;;;;5034967;28;20044;-65
2021/05/02 00:21:17;;;;;;;4.38;3.97;;;9.00;80.30;;;;;;5038593;28;20567;-65
2021/05/02 00:23:48;;;;;;;4.30;3.72;;;9.00;80.30;;;;;;5039342;28;20029;-65
2021/05/02 00:26:16;;;;;;;4.22;3.83;;;9.00;80.40;;;;;;5038788;28;20067;-65
2021/05/02 00:28:49;;;;;;;4.82;4.32;;;9.00;80.30;;;;;;5037602;28;20088;-65
2021/05/02 00:31:18;;;;;;;4.95;4.38;;;9.00;80.50;;;;;;5038829;28;20038;-65
2021/05/02 00:33:48;;;;;;;4.63;4.20;;;9.00;80.30;;;;;;5038981;28;20038;-65
2021/05/02 00:36:20;;;;;;;5.00;4.30;;;8.90;80.30;;;;;;5039195;28;20038;-65
2021/05/02 00:38:45;;;;;;;5.20;4.70;;;8.90;80.50;;;;;;5034298;28;20040;-65
2021/05/02 00:41:26;;;;;;;4.93;4.43;;;8.90;80.50;;;;;;5038134;28;20041;-65
2021/05/02 00:44:01;;;;;;;5.93;5.15;;;8.80;80.50;;;;;;5037961;28;20040;-65
2021/05/02 00:46:44;;;;;;;6.00;5.40;;;8.80;80.80;;;;;;5034871;28;20041;-64
2021/05/02 00:49:37;;;;;;;5.78;5.22;;;8.80;81.00;;;;;;5033874;28;20041;-65
2021/05/02 00:52:30;;;;;;;6.18;5.20;;;8.70;81.20;;;;;;5037350;28;20034;-65
2021/05/02 00:55:11;;;;;;;6.10;5.50;;;8.70;81.00;;;;;;5035055;28;20033;-65
2021/05/02 00:58:01;;;;;;;6.75;6.05;;;8.70;81.20;;;;;;5036923;28;20048;-65
2021/05/02 01:00:32;;;;;;;8.02;7.00;;;8.60;81.50;;;;;;5043865;28;20033;-64
2021/05/02 01:03:04;;;;;;;9.55;7.65;;;8.50;81.00;;;;;;5034447;28;20064;-65
2021/05/02 01:05:34;;;;;;;8.45;7.22;;;8.50;80.80;;;;;;5033597;28;20029;-65
2021/05/02 01:08:04;;;;;;;9.73;7.82;;;8.50;80.90;;;;;;5032000;28;20394;-65
2021/05/02 01:10:34;;;;;;;10.70;7.68;;;8.40;80.90;;;;;;5024700;28;20034;-65
2021/05/02 01:13:09;;;;;;;9.18;7.70;;;8.40;80.90;;;;;;5037339;28;20033;-65
2021/05/02 01:15:43;;;;;;;9.98;7.68;;;8.40;80.90;;;;;;5051544;28;20409;-64
2021/05/02 01:18:12;;;;;;;9.23;7.47;;;8.40;81.00;;;;;;5034898;28;20098;-65
2021/05/02 01:20:44;;;;;;;9.80;7.80;;;8.30;80.80;;;;;;5031766;28;20083;-65
2021/05/02 01:23:32;;;;;;;10.30;7.78;;;8.30;81.00;;;;;;5034259;28;20038;-65
2021/05/02 01:26:00;;;;;;;9.82;8.07;;;8.30;81.90;;;;;;5037127;28;20061;-65
2021/05/02 01:28:27;;;;;;;10.45;8.98;;;8.30;81.20;;;;;;5032735;28;20575;-65
2021/05/02 01:30:54;;;;;;;10.15;7.95;;;8.30;81.10;;;;;;5033144;28;20648;-65
2021/05/02 01:33:24;;;;;;;11.73;8.90;;;8.30;81.10;;;;;;5036724;28;20528;-66
2021/05/02 01:35:55;;;;;;;11.27;8.98;;;8.30;81.30;;;;;;5032581;28;20040;-65
2021/05/02 01:38:25;;;;;;;10.77;8.88;;;8.20;81.30;;;;;;5034175;28;20054;-64
2021/05/02 01:40:54;;;;;;;13.05;10.32;;;8.20;81.40;;;;;;5035142;28;20034;-65
2021/05/02 01:43:24;;;;;;;14.25;10.95;;;8.20;81.30;;;;;;5035911;28;20120;-65
2021/05/02 01:45:55;;;;;;;14.45;11.20;;;8.20;81.20;;;;;;5038166;28;20120;-65
2021/05/02 01:48:25;;;;;;;15.13;11.07;;;8.20;81.00;;;;;;5033874;28;20401;-65
2021/05/02 01:50:57;;;;;;;13.32;11.18;;;8.20;80.90;;;;;;5032201;28;20074;-65
2021/05/02 01:53:25;;;;;;;15.75;12.45;;;8.10;80.80;;;;;;5036582;28;20021;-65
2021/05/02 01:55:57;;;;;;;15.65;11.50;;;8.10;81.50;;;;;;5037046;28;20037;-65
2021/05/02 01:58:27;;;;;;;14.43;11.48;;;8.10;80.80;;;;;;5032501;28;20038;-65
2021/05/02 02:01:02;;;;;;;14.13;11.63;;;8.00;80.70;;;;;;5036581;28;20033;-64
2021/05/02 02:03:30;;;;;;;15.32;11.55;;;8.00;80.60;;;;;;5034235;28;20148;-65
2021/05/02 02:06:00;;;;;;;15.57;12.45;;;7.90;80.50;;;;;;5034910;28;20029;-65
2021/05/02 02:08:30;;;;;;;16.88;13.00;;;7.90;80.30;;;;;;5038014;28;20029;-65
2021/05/02 02:10:58;;;;;;;15.75;12.70;;;7.80;80.30;;;;;;5034823;28;20033;-66
2021/05/02 02:13:29;;;;;;;17.92;13.30;;;7.80;80.50;;;;;;5033361;28;20033;-65
2021/05/02 02:15:55;;;;;;;17.35;12.70;;;7.80;80.60;;;;;;5034471;28;20041;-65
2021/05/02 02:18:23;;;;;;;16.17;12.80;;;7.70;80.60;;;;;;5032888;28;20029;-65
2021/05/02 02:20:54;;;;;;;18.35;13.82;;;7.70;80.80;;;;;;5031719;28;20038;-65
2021/05/02 02:23:30;;;;;;;15.55;12.68;;;7.60;80.80;;;;;;5036709;28;20033;-65
2021/05/02 02:26:11;;;;;;;17.02;13.43;;;7.60;81.00;;;;;;5042527;28;20404;-64
2021/05/02 02:28:38;;;;;;;17.13;13.50;;;7.60;81.20;;;;;;5040192;28;20036;-65
2021/05/02 02:31:08;;;;;;;17.73;13.57;;;7.60;81.10;;;;;;5038433;28;20040;-65
2021/05/02 02:33:41;;;;;;;17.65;13.77;;;7.60;81.20;;;;;;5038686;28;20041;-65
2021/05/02 02:36:13;;;;;;;16.08;13.07;;;7.60;81.20;;;;;;5041079;28;20036;-65
2021/05/02 02:38:41;;;;;;;15.75;12.60;;;7.50;81.00;;;;;;5039905;28;20055;-64
2021/05/02 02:41:11;;;;;;;16.25;13.10;;;7.50;80.90;;;;;;5039001;28;20044;-65
2021/05/02 02:43:48;;;;;;;16.75;12.95;;;7.50;81.00;;;;;;5036805;28;20570;-65
2021/05/02 02:46:19;;;;;;;16.08;12.65;;;7.50;81.10;;;;;;5039491;28;20794;-65
2021/05/02 02:48:50;;;;;;;16.00;12.18;;;7.50;81.20;;;;;;5036281;28;20036;-65
2021/05/02 02:51:22;;;;;;;15.98;12.25;;;7.50;81.30;;;;;;5042980;28;20560;-65
2021/05/02 02:53:51;;;;;;;16.08;12.77;;;7.50;81.30;;;;;;5046617;28;20033;-65
2021/05/02 02:56:23;;;;;;;16.48;13.10;;;7.50;81.20;;;;;;5039187;28;20111;-65
2021/05/02 02:59:09;;;;;;;15.80;12.98;;;7.50;81.20;;;;;;5045614;28;20044;-65
2021/05/02 03:01:41;;;;;;;17.17;13.55;;;7.50;81.20;;;;;;5040754;28;20029;-65
2021/05/02 03:04:11;;;;;;;16.88;13.52;;;7.50;81.00;;;;;;5036990;28;20056;-65
2021/05/02 03:06:37;;;;;;;15.75;12.90;;;7.50;81.00;;;;;;5037289;28;20127;-65
2021/05/02 03:09:05;;;;;;;14.52;12.52;;;7.40;80.90;;;;;;5034929;28;20401;-65
2021/05/02 03:11:36;;;;;;;14.45;12.07;;;7.40;80.90;;;;;;5036342;28;20057;-64
2021/05/02 03:14:06;;;;;;;16.98;12.65;;;7.40;80.70;;;;;;5038062;28;20420;-64
2021/05/02 03:16:37;;;;;;;16.27;12.80;;;7.40;80.80;;;;;;5037317;28;20103;-65
2021/05/02 03:19:26;;;;;;;17.20;12.98;;;7.40;80.80;;;;;;5034371;28;20033;-64
2021/05/02 03:22:08;;;;;;;16.13;12.85;;;7.40;80.80;;;;;;5037720;28;20037;-65
2021/05/02 03:24:42;;;;;;;16.67;13.13;;;7.40;80.80;;;;;;5036673;28;20083;-65
2021/05/02 03:27:20;;;;;;;17.35;13.80;;;7.40;81.00;;;;;;5037992;28;20411;-65
2021/05/02 03:29:49;;;;;;;18.73;13.45;;;7.40;81.20;;;;;;5035766;28;20071;-65
2021/05/02 03:32:22;;;;;;;17.77;14.80;;;7.40;82.00;;;;;;5035438;28;20029;-65
2021/05/02 03:34:55;;;;;;;18.58;14.75;;;7.40;81.20;;;;;;5037660;28;20032;-65
2021/05/02 03:37:27;;;;;;;19.55;15.05;;;7.40;81.10;;;;;;5038564;28;20038;-65
2021/05/02 03:39:55;;;;;;;18.23;14.27;;;7.40;81.00;;;;;;5038664;28;20033;-64
2021/05/02 03:42:23;;;;;;;19.33;15.00;;;7.40;80.80;;;;;;5038917;28;20033;-65
2021/05/02 03:44:51;;;;;;;18.23;13.90;;;7.40;81.00;;;;;;5032191;28;20171;-65
2021/05/02 03:47:19;;;;;;;18.58;14.77;;;7.40;80.90;;;;;;5035150;28;20048;-65
2021/05/02 03:49:47;;;;;;;18.75;13.93;;;7.40;81.00;;;;;;5037076;28;20041;-65
2021/05/02 03:52:18;;;;;;;19.52;13.90;;;7.40;81.00;;;;;;5037150;28;20128;-65
2021/05/02 03:54:53;;;;;;;16.92;13.85;;;7.40;80.90;;;;;;5038228;28;20037;-65
2021/05/02 03:57:23;;;;;;;16.92;13.27;;;7.40;80.80;;;;;;5039538;28;20033;-65
2021/05/02 03:59:53;;;;;;;17.27;13.70;;;7.50;80.80;;;;;;5033962;28;20105;-65
2021/05/02 04:02:21;;;;;;;16.70;13.40;;;7.50;81.50;;;;;;5037621;28;20708;-65
2021/05/02 04:04:51;;;;;;;15.48;12.50;;;7.40;80.50;;;;;;5037038;28;20033;-65
2021/05/02 04:07:22;;;;;;;16.67;13.63;;;7.40;80.40;;;;;;5036811;28;20095;-65
2021/05/02 04:09:49;;;;;;;15.35;12.40;;;7.40;80.50;;;;;;5034129;28;20030;-65
2021/05/02 04:12:16;;;;;;;15.35;12.55;;;7.40;80.40;;;;;;5032032;28;20056;-64
2021/05/02 04:14:46;;;;;;;14.43;12.15;;;7.40;81.10;;;;;;5041664;28;20098;-64
2021/05/02 04:17:15;;;;;;;14.65;11.82;;;7.40;80.30;;;;;;5035946;28;20654;-65
2021/05/02 04:19:49;;;;;;;13.93;11.88;;;7.40;80.30;;;;;;5035859;28;20045;-65
2021/05/02 04:22:22;;;;;;;14.55;11.80;;;7.40;80.40;;;;;;5037194;28;20029;-65
2021/05/02 04:24:48;;;;;;;14.90;11.68;;;7.40;80.40;;;;;;5035314;28;20061;-65
2021/05/02 04:27:17;;;;;;;13.60;11.77;;;7.30;81.10;;;;;;5036651;28;20049;-65
2021/05/02 04:29:46;;;;;;;15.27;11.70;;;7.30;80.30;;;;;;5037087;28;20080;-65
2021/05/02 04:32:14;;;;;;;13.85;11.63;;;7.30;80.40;;;;;;5035087;28;20037;-65
2021/05/02 04:34:42;;;;;;;15.45;12.40;;;7.30;80.30;;;;;;5027485;28;20033;-63
2021/05/02 04:37:13;;;;;;;15.48;12.00;;;7.30;80.50;;;;;;5031150;28;20495;-65
2021/05/02 04:39:38;;;;;;;13.80;11.68;;;7.30;80.50;;;;;;5030007;28;20025;-65
2021/05/02 04:42:07;;;;;;;15.05;12.43;;;7.30;80.60;;;;;;5031311;28;20037;-64
2021/05/02 04:44:35;;;;;;;13.90;11.60;;;7.30;80.60;;;;;;5031686;28;20033;-65
2021/05/02 04:47:06;;;;;;;13.52;11.48;;;7.30;80.60;;;;;;5035025;28;20048;-64
2021/05/02 04:49:36;;;;;;;14.05;11.60;;;7.20;80.60;;;;;;5040400;28;20021;-66
2021/05/02 04:52:04;;;;;;;13.07;10.98;;;7.30;80.60;;;;;;5039857;28;20029;-66
2021/05/02 04:54:32;;;;;;;13.43;11.05;;;7.30;80.60;;;;;;5045432;28;20030;-64
2021/05/02 04:57:04;;;;;;;12.20;10.57;;;7.30;80.80;;;;;;5033825;28;20037;-64
2021/05/02 04:59:32;;;;;;;12.70;10.80;;;7.30;80.80;;;;;;5037140;28;20029;-66
2021/05/02 05:02:00;;;;;;;12.55;10.70;;;7.30;80.70;;;;;;5033286;28;20463;-65
2021/05/02 05:04:25;;;;;;;12.40;10.70;;;7.30;80.70;;;;;;5035110;28;20040;-65
2021/05/02 05:06:54;;;;;;;12.73;10.50;;;7.30;80.60;;;;;;5033117;28;20045;-65
2021/05/02 05:09:19;;;;;;;12.63;11.25;;;7.30;80.50;;;;;;5035244;28;20029;-65
2021/05/02 05:11:47;;;;;;;12.43;10.90;;;7.40;80.60;;;;;;5029358;28;20033;-64
2021/05/02 05:14:15;;;;;;;13.65;11.13;;;7.40;80.50;;;;;;5037917;28;20033;-65
2021/05/02 05:16:45;;;;;;;13.40;11.23;;;7.30;80.40;;;;;;5036939;28;20109;-65
2021/05/02 05:19:13;;;;;;;12.40;10.85;;;7.30;80.50;;;;;;5033496;28;20564;-65
2021/05/02 05:21:44;;;;;;;13.07;11.20;;;7.40;80.60;;;;;;5035547;28;20033;-66
2021/05/02 05:24:11;;;;;;;11.57;10.18;;;7.30;80.60;;;;;;5034201;28;20025;-66
2021/05/02 05:26:42;;;;;;;12.98;10.77;;;7.40;80.60;;;;;;5038023;28;20033;-66
2021/05/02 05:29:10;;;;;;;13.23;11.02;;;7.40;80.50;;;;;;5036014;28;20030;-66
2021/05/02 05:31:38;;;;;;;11.73;10.43;;;7.40;80.60;;;;;;5031881;28;20033;-65
2021/05/02 05:34:08;;;;;;;12.05;10.10;;;7.40;80.60;;;;;;5032055;28;20026;-65
2021/05/02 05:36:36;;;;;;;11.93;10.45;;;7.50;80.50;;;;;;5029467;28;20042;-65
2021/05/02 05:39:06;;;;;;;11.55;10.05;;;7.40;80.40;;;;;;5033350;28;20459;-65
2021/05/02 05:41:36;;;;;;;11.70;10.43;;;7.40;80.30;;;;;;5035933;28;20555;-64
2021/05/02 05:44:09;;;;;;;11.63;10.10;;;7.40;80.30;;;;;;5029127;28;20146;-65
2021/05/02 05:46:35;;;;;;;18.58;14.90;;;7.40;80.20;;;;;;5031526;28;20037;-65
2021/05/02 05:49:02;;;;;;;12.73;11.23;;;7.40;80.20;;;;;;5028900;28;20025;-65
2021/05/02 05:51:35;;;;;;;12.73;10.48;;;7.40;80.40;;;;;;5036244;28;20030;-65
2021/05/02 05:54:04;;;;;;;11.00;9.45;;;7.40;80.30;;;;;;5029051;28;20037;-65
2021/05/02 05:56:29;;;;;;;10.18;9.10;;;7.50;80.30;;;;;;5028639;28;20385;-65
2021/05/02 05:58:59;;;;;;;11.13;9.93;;;7.50;80.40;;;;;;5029597;28;20041;-65
2021/05/02 06:01:25;;;;;;;9.85;8.85;;;7.50;80.50;;;;;;5026082;28;20061;-64
2021/05/02 06:03:55;;;;;;;10.32;9.25;;;7.50;80.40;;;;;;5022339;28;20473;-65
2021/05/02 06:06:26;;;;;;;10.40;9.38;;;7.60;80.20;;;;;;5029646;28;20037;-65
2021/05/02 06:08:56;;;;;;;10.95;9.32;;;7.60;80.00;;;;;;5029282;28;20034;-65
2021/05/02 06:11:22;;;;;;;10.70;9.60;;;7.60;80.00;;;;;;5027599;28;20100;-64
2021/05/02 06:13:50;;;;;;;12.90;11.50;;;7.60;79.90;;;;;;5036540;28;20112;-65
2021/05/02 06:16:15;;;;;;;35.78;23.38;;;7.60;80.00;;;;;;5033239;28;20087;-65
2021/05/02 06:18:48;;;;;;;12.38;11.18;;;7.60;79.90;;;;;;5021243;28;20049;-65
2021/05/02 06:21:18;;;;;;;11.85;10.65;;;7.60;79.80;;;;;;5016176;28;20045;-64
2021/05/02 06:23:46;;;;;;;12.07;10.77;;;7.60;79.80;;;;;;5018026;28;20039;-65
2021/05/02 06:26:19;;;;;;;13.55;12.02;;;7.70;80.00;;;;;;5021792;28;21642;-67
2021/05/02 06:28:48;;;;;;;12.88;11.32;;;7.60;79.80;;;;;;5019829;28;20521;-67
2021/05/02 06:31:20;;;;;;;14.05;12.57;;;7.60;79.70;;;;;;5020977;28;20124;-66
2021/05/02 06:33:48;;;;;;;15.35;13.73;;;7.60;80.00;;;;;;5018341;28;20502;-67
2021/05/02 06:36:19;;;;;;;16.42;13.73;;;7.70;79.80;;;;;;5020857;28;20042;-65
2021/05/02 06:38:44;;;;;;;16.75;13.98;;;7.70;79.90;;;;;;5026219;28;20273;-65
2021/05/02 06:41:10;;;;;;;17.50;14.70;;;7.70;79.90;;;;;;5022020;28;20082;-65
2021/05/02 06:43:38;;;;;;;17.63;15.05;;;7.70;80.00;;;;;;5020209;28;20041;-66
2021/05/02 06:46:06;;;;;;;20.13;16.75;;;7.70;80.10;;;;;;5021395;28;20404;-66
2021/05/02 06:48:34;;;;;;;20.08;16.90;;;7.70;80.30;;;;;;5024432;28;20572;-65
2021/05/02 06:51:05;;;;;;;22.90;19.05;;;7.80;80.40;;;;;;5021098;28;20076;-65
2021/05/02 06:53:35;;;;;;;23.20;18.85;;;7.80;80.10;;;;;;5018807;28;20034;-64
2021/05/02 06:56:05;;;;;;;23.92;19.60;;;7.80;79.80;;;;;;5021426;28;20566;-65
2021/05/02 06:58:35;;;;;;;25.02;20.30;;;7.90;79.80;;;;;;5022168;28;20120;-65
2021/05/02 07:01:03;;;;;;;24.27;19.98;;;7.90;80.10;;;;;;5019163;28;20037;-66
2021/05/02 07:03:36;;;;;;;26.50;20.80;;;7.90;80.10;;;;;;5015402;28;20038;-65
2021/05/02 07:06:06;;;;;;;23.85;20.00;;;8.00;80.00;;;;;;5023447;28;20037;-65
2021/05/02 07:08:36;;;;;;;25.25;20.10;;;8.00;79.80;;;;;;5019610;28;20744;-65
2021/05/02 07:11:06;;;;;;;24.50;20.60;;;8.10;79.70;;;;;;5025689;28;20025;-65
2021/05/02 07:13:37;;;;;;;25.63;20.67;;;8.10;79.40;;;;;;5040975;28;20108;-64
2021/05/02 07:16:03;;;;;;;26.33;21.50;;;8.10;79.10;;;;;;5037043;28;20029;-65
2021/05/02 07:18:33;;;;;;;26.10;21.52;;;8.20;79.40;;;;;;5036299;28;20463;-65
2021/05/02 07:21:05;;;;;;;25.27;21.45;;;8.20;79.30;;;;;;5034686;28;20034;-65
2021/05/02 07:23:37;;;;;;;25.60;21.48;;;8.20;79.10;;;;;;5038548;28;20025;-65
2021/05/02 07:26:03;;;;;;;26.17;21.70;;;8.30;79.80;;;;;;5038271;28;20492;-64
2021/05/02 07:28:33;;;;;;;25.08;21.20;;;8.30;78.80;;;;;;5037113;28;20040;-66
2021/05/02 07:30:59;;;;;;;27.58;22.48;;;8.30;78.90;;;;;;5040604;28;20504;-65
2021/05/02 07:33:29;;;;;;;26.92;21.85;;;8.40;79.00;;;;;;5035353;28;20068;-65
2021/05/02 07:35:57;;;;;;;25.50;20.83;;;8.40;79.10;;;;;;5039322;28;20065;-65
2021/05/02 07:38:29;;;;;;;25.13;20.88;;;8.50;79.00;;;;;;5037533;28;20664;-66
2021/05/02 07:40:58;;;;;;;25.80;20.48;;;8.50;78.90;;;;;;5039292;28;20037;-65
2021/05/02 07:43:31;;;;;;;25.77;20.48;;;8.50;78.70;;;;;;5037853;28;20061;-65
2021/05/02 07:45:56;;;;;;;24.83;20.35;;;8.60;78.60;;;;;;5038687;28;20029;-65
2021/05/02 07:48:26;;;;;;;25.67;20.85;;;8.60;78.50;;;;;;5037992;28;20526;-67
2021/05/02 07:50:54;;;;;;;25.10;20.52;;;8.70;78.20;;;;;;5035625;28;20067;-65
2021/05/02 07:53:27;;;;;;;23.23;20.02;;;8.70;78.20;;;;;;5035315;28;20037;-65
2021/05/02 07:55:55;;;;;;;25.20;20.50;;;8.70;78.10;;;;;;5040765;28;20038;-65
2021/05/02 07:58:20;;;;;;;26.75;21.05;;;8.70;78.30;;;;;;5033282;28;20045;-65
2021/05/02 08:00:51;;;;;;;25.52;20.42;;;8.80;78.50;;;;;;5038030;28;20090;-65
2021/05/02 08:03:21;;;;;;;24.27;19.42;;;8.80;78.60;;;;;;5042229;28;20025;-65
2021/05/02 08:05:51;;;;;;;22.88;18.70;;;8.80;78.20;;;;;;5038855;28;20025;-65
2021/05/02 08:08:22;;;;;;;20.65;17.27;;;8.90;78.00;;;;;;5038220;28;20049;-65
2021/05/02 08:10:50;;;;;;;20.50;17.80;;;8.90;78.00;;;;;;5038884;28;20049;-65
2021/05/02 08:13:21;;;;;;;21.77;17.58;;;8.90;78.00;;;;;;5035031;28;20061;-65
2021/05/02 08:15:52;;;;;;;19.55;17.10;;;9.00;78.10;;;;;;5056393;28;20056;-65
2021/05/02 08:18:19;;;;;;;20.42;17.10;;;9.00;77.90;;;;;;5039641;28;20319;-65
2021/05/02 08:20:47;;;;;;;19.65;16.45;;;9.00;77.90;;;;;;5035675;28;20485;-65
2021/05/02 08:23:15;;;;;;;20.98;17.58;;;9.00;78.00;;;;;;5017865;28;20049;-65
2021/05/02 08:25:46;;;;;;;20.17;16.98;;;9.10;77.90;;;;;;5020212;28;20033;-66
2021/05/02 08:28:14;;;;;;;19.38;16.55;;;9.10;77.90;;;;;;5034596;28;20045;-65
2021/05/02 08:30:39;;;;;;;20.08;16.55;;;9.10;77.90;;;;;;5037584;28;20041;-65
2021/05/02 08:33:07;;;;;;;23.13;18.10;;;9.20;77.90;;;;;;5034205;28;20447;-66
2021/05/02 08:35:35;;;;;;;18.63;16.08;;;9.20;77.70;;;;;;5038113;28;20036;-66
2021/05/02 08:38:06;;;;;;;20.42;16.73;;;9.30;77.70;;;;;;5038456;28;20073;-65
2021/05/02 08:40:34;;;;;;;18.90;16.30;;;9.30;77.80;;;;;;5039939;28;20487;-66
2021/05/02 08:43:08;;;;;;;18.70;15.80;;;9.40;77.20;;;;;;5039588;28;20602;-65
2021/05/02 08:45:38;;;;;;;17.58;15.63;;;9.40;76.60;;;;;;5036808;28;20143;-66
2021/05/02 08:48:09;;;;;;;17.38;15.48;;;9.50;76.70;;;;;;5038007;28;20095;-65
2021/05/02 08:50:42;;;;;;;18.17;15.73;;;9.50;76.30;;;;;;5034149;28;20037;-66
2021/05/02 08:53:12;;;;;;;21.13;16.77;;;9.50;76.10;;;;;;5034420;28;20431;-65
2021/05/02 08:55:41;;;;;;;25.50;18.65;;;9.50;76.10;;;;;;5036603;28;20030;-65
2021/05/02 08:58:13;;;;;;;30.77;20.70;;;9.50;76.30;;;;;;5034996;28;20049;-65
2021/05/02 09:00:41;;;;;;;21.83;16.63;;;9.50;77.20;;;;;;5022101;28;20044;-65
2021/05/02 09:03:07;;;;;;;23.55;18.27;;;9.50;76.40;;;;;;5027086;28;20041;-65
2021/05/02 09:05:46;;;;;;;23.60;18.42;;;9.50;76.30;;;;;;5030044;28;20041;-65
2021/05/02 09:08:35;;;;;;;21.85;17.90;;;9.50;76.30;;;;;;5029097;28;20092;-65
2021/05/02 09:11:04;;;;;;;23.52;18.70;;;9.60;75.00;;;;;;5024856;28;20063;-65
2021/05/02 09:13:34;;;;;;;20.20;17.05;;;9.60;75.60;;;;;;5026220;28;20739;-65
2021/05/02 09:16:06;;;;;;;19.00;15.57;;;9.60;75.50;;;;;;5027927;28;20032;-65
2021/05/02 09:18:41;;;;;;;18.52;15.90;;;9.60;75.40;;;;;;5026560;28;20090;-65
2021/05/02 09:21:26;;;;;;;17.45;14.88;;;9.70;76.10;;;;;;5023928;28;20041;-65
2021/05/02 09:23:54;;;;;;;;;;;9.70;74.60;;;;;;5029232;28;20025;-64
2021/05/02 09:26:31;;;;;;;23.95;18.00;;;9.70;74.50;;;;;;5024937;28;20550;-65
2021/05/02 09:29:03;;;;;;;30.73;22.15;;;9.70;74.70;;;;;;5035008;28;20033;-65
2021/05/02 09:31:32;;;;;;;23.95;17.50;;;9.70;74.60;;;;;;5025876;28;20030;-64
2021/05/02 09:34:14;;;;;;;23.67;18.75;;;9.70;74.40;;;;;;5032613;28;20026;-67
2021/05/02 09:37:03;;;;;;;34.15;25.45;;;9.70;74.30;;;;;;5030195;28;20421;-65
2021/05/02 09:39:42;;;;;;;35.20;25.27;;;9.70;74.60;;;;;;5038451;28;20029;-66
2021/05/02 09:42:19;;;;;;;21.33;17.92;;;9.70;75.00;;;;;;5036897;28;20041;-65
2021/05/02 09:44:48;;;;;;;21.48;16.58;;;9.70;74.80;;;;;;5038698;28;20033;-65
2021/05/02 09:47:28;;;;;;;22.42;18.02;;;9.70;74.80;;;;;;5045933;28;20045;-65
2021/05/02 09:50:19;;;;;;;19.63;16.50;;;9.80;74.80;;;;;;5036348;28;20041;-65
2021/05/02 09:52:49;;;;;;;23.27;16.75;;;9.80;74.40;;;;;;5037472;28;20059;-65
2021/05/02 09:55:40;;;;;;;18.30;15.32;;;9.80;74.50;;;;;;5036014;28;20130;-65
2021/05/02 09:58:09;;;;;;;18.58;15.60;;;9.80;74.40;;;;;;5023454;23;20049;-66
2021/05/02 10:00:53;;;;;;;19.45;15.60;;;9.90;75.10;;;;;;5019965;28;20048;-65
2021/05/02 10:03:23;;;;;;;18.05;15.10;;;9.90;74.80;;;;;;5032955;28;20037;-65
2021/05/02 10:06:05;;;;;;;26.50;20.98;;;10.00;75.20;;;;;;5038501;28;20037;-65
2021/05/02 10:08:40;;;;;;;23.90;19.52;;;10.10;75.30;;;;;;5038472;28;20033;-65
2021/05/02 10:11:11;;;;;;;18.58;16.58;;;10.20;75.60;;;;;;5034418;28;20123;-65
2021/05/02 10:13:39;;;;;;;18.20;15.45;;;10.30;75.60;;;;;;5038156;28;20033;-65
2021/05/02 10:16:09;;;;;;;20.85;17.15;;;10.40;75.40;;;;;;5037963;28;20035;-65
2021/05/02 10:18:36;;;;;;;18.63;16.27;;;10.50;74.80;;;;;;5038204;28;20060;-65
2021/05/02 10:21:04;;;;;;;21.65;18.50;;;10.50;74.30;;;;;;5038376;28;20472;-65
2021/05/02 10:23:34;;;;;;;23.02;19.25;;;10.60;73.30;;;;;;5036418;28;20030;-65
2021/05/02 10:26:02;;;;;;;24.25;17.85;;;10.70;72.50;;;;;;5037139;28;20104;-66
2021/05/02 10:28:35;;;;;;;26.55;20.92;;;10.70;72.80;;;;;;5036200;28;20018;-65
2021/05/02 10:31:06;;;;;;;18.40;16.40;;;10.70;72.10;;;;;;5035693;28;20029;-65
2021/05/02 10:33:41;;;;;;;19.08;16.58;;;10.80;71.90;;;;;;5037845;28;20484;-65
2021/05/02 10:36:23;;;;;;;21.10;16.42;;;10.80;71.00;;;;;;5037478;28;20030;-65
2021/05/02 10:39:02;;;;;;;18.73;16.70;;;10.80;71.10;;;;;;5036834;28;20026;-65
2021/05/02 10:41:44;;;;;;;19.67;17.15;;;10.80;69.50;;;;;;5036536;28;20113;-65
2021/05/02 10:44:15;;;;;;;20.13;15.93;;;10.90;70.40;;;;;;5036896;28;20056;-65
2021/05/02 10:46:44;;;;;;;18.35;15.85;;;10.90;70.20;;;;;;5038114;28;20100;-66
2021/05/02 10:49:27;;;;;;;19.15;16.85;;;11.00;69.30;;;;;;5042735;28;20030;-65
2021/05/02 10:52:02;;;;;;;22.52;18.15;;;11.00;69.30;;;;;;5041291;28;20446;-65
2021/05/02 10:54:48;;;;;;;21.25;17.35;;;11.00;70.70;;;;;;5041461;28;20532;-66
2021/05/02 10:57:36;;;;;;;20.17;16.98;;;11.10;69.30;;;;;;5040433;28;20030;-65
2021/05/02 11:00:11;;;;;;;19.30;16.50;;;11.10;69.10;;;;;;5041157;28;20440;-65
2021/05/02 11:02:40;;;;;;;21.30;17.45;;;11.20;69.20;;;;;;5039337;28;20037;-64
2021/05/02 11:05:10;;;;;;;17.15;15.32;;;11.20;69.00;;;;;;5042032;28;20537;-66
2021/05/02 11:07:41;;;;;;;19.30;15.27;;;11.30;69.30;;;;;;5041093;28;20113;-65
2021/05/02 11:10:17;;;;;;;21.42;16.20;;;11.40;69.50;;;;;;5041488;28;20416;-67
2021/05/02 11:12:46;;;;;;;16.95;15.15;;;11.50;69.30;;;;;;5038147;28;20118;-66
2021/05/02 11:15:37;;;;;;;20.65;17.63;;;11.50;68.10;;;;;;5040479;28;20029;-66
2021/05/02 11:18:20;;;;;;;18.77;16.73;;;11.50;66.70;;;;;;5041999;28;20388;-66
2021/05/02 11:20:50;;;;;;;17.85;15.95;;;11.60;67.80;;;;;;5040587;28;20029;-65
2021/05/02 11:23:57;;;;;;;20.13;16.48;;;11.60;67.00;;;;;;5038152;28;20057;-64
2021/05/02 11:27:39;;;;;;;18.08;15.93;;;11.50;63.70;;;;;;5032704;28;20553;-65
2021/05/02 11:30:05;;;;;;;16.05;14.05;;;11.40;64.80;;;;;;5023234;28;20029;-65
2021/05/02 11:32:30;;;;;;;12.40;10.75;;;11.10;66.60;;;;;;5039749;28;20032;-65
2021/05/02 11:35:08;;;;;;;10.35;8.88;;;10.80;66.60;;;;;;5047892;28;20029;-65
2021/05/02 11:37:59;;;;;;;8.75;7.85;;;10.50;66.40;;;;;;5040086;28;20033;-64
2021/05/02 11:40:30;;;;;;;8.65;7.75;;;10.10;67.90;;;;;;5039389;28;20067;-65
2021/05/02 11:43:13;;;;;;;9.27;8.38;;;9.90;68.60;;;;;;5040736;28;20034;-65
2021/05/02 11:45:58;;;;;;;9.60;8.57;;;9.70;69.50;;;;;;5041563;28;20076;-65
2021/05/02 11:48:35;;;;;;;11.65;9.55;;;9.50;72.60;;;;;;5040972;28;20030;-66
2021/05/02 11:51:17;;;;;;;12.50;11.20;;;9.50;73.30;;;;;;5040304;28;20460;-65
2021/05/02 11:53:55;;;;;;;16.35;14.65;;;9.50;73.40;;;;;;5041688;28;20033;-65
2021/05/02 11:56:27;;;;;;;14.40;12.55;;;9.60;73.70;;;;;;5038384;28;20037;-65
2021/05/02 11:58:56;;;;;;;15.43;12.60;;;9.70;73.50;;;;;;5039569;28;20088;-66
2021/05/02 12:01:26;;;;;;;13.98;11.90;;;9.80;73.90;;;;;;5040022;28;20116;-66
2021/05/02 12:04:11;;;;;;;14.65;12.45;;;9.90;74.20;;;;;;5041208;28;20056;-65
2021/05/02 12:06:41;;;;;;;15.90;13.70;;;10.00;74.40;;;;;;5041378;28;20033;-65
2021/05/02 12:09:18;;;;;;;15.15;13.57;;;10.10;74.60;;;;;;5040509;28;20029;-66
2021/05/02 12:11:54;;;;;;;15.02;13.07;;;10.20;74.40;;;;;;5039300;28;20087;-66
2021/05/02 12:14:23;;;;;;;15.25;13.65;;;10.40;74.70;;;;;;5041727;28;20036;-66
2021/05/02 12:16:57;;;;;;;17.25;14.73;;;10.50;74.70;;;;;;5041342;28;20099;-66
2021/05/02 12:19:26;;;;;;;17.17;15.27;;;10.60;75.00;;;;;;5041857;28;20497;-66
2021/05/02 12:21:52;;;;;;;16.13;14.40;;;10.80;75.10;;;;;;5039670;28;20068;-66
2021/05/02 12:24:23;;;;;;;16.25;14.55;;;10.90;74.10;;;;;;5041500;28;20033;-66
2021/05/02 12:26:59;;;;;;;15.35;13.52;;;10.90;73.00;;;;;;5040104;28;20037;-64
2021/05/02 12:29:30;;;;;;;15.60;13.98;;;11.10;72.80;;;;;;5042457;28;20021;-64
2021/05/02 12:32:00;;;;;;;16.73;14.77;;;11.20;72.50;;;;;;5040961;28;20120;-64
2021/05/02 12:34:32;;;;;;;14.88;13.10;;;11.20;72.00;;;;;;5039340;28;20039;-64
2021/05/02 12:37:12;;;;;;;16.40;14.32;;;11.30;70.40;;;;;;5040204;28;20066;-64
2021/05/02 12:39:38;;;;;;;11.80;10.52;;;11.40;69.80;;;;;;5045903;28;20025;-64
2021/05/02 12:42:05;;;;;;;12.32;11.13;;;11.50;69.20;;;;;;5038395;28;20029;-64
2021/05/02 12:44:32;;;;;;;11.90;10.70;;;11.50;68.80;;;;;;5041188;28;20122;-64
2021/05/02 12:47:15;;;;;;;11.57;9.85;;;11.50;69.00;;;;;;5040469;28;20029;-64
2021/05/02 12:49:58;;;;;;;9.75;8.45;;;11.60;68.00;;;;;;5041227;28;20041;-64
2021/05/02 12:52:38;;;;;;;11.27;10.07;;;11.60;67.50;;;;;;5037304;28;20037;-64
2021/05/02 12:55:32;;;;;;;11.50;10.30;;;11.80;66.60;;;;;;5038198;28;20037;-64
2021/05/02 12:58:07;;;;;;;11.13;9.93;;;11.80;66.80;;;;;;5038231;28;20037;-64
2021/05/02 13:00:47;;;;;;;13.20;11.00;;;11.90;67.10;;;;;;5040055;28;20045;-64
2021/05/02 13:03:40;;;;;;;13.02;11.60;;;11.90;67.20;;;;;;5039071;28;20029;-64